X  Tanca Dades meteorològiques de l'aviació METAR        ETNH Flugplatz Hohn Airport
Temperatura
5°C Temperatura
5°C Rosada
100% Humitat



Vent
15 KM/H
9 MPH
4 M/S
8 NUS



50°
NE
Condicions actuals

Mostly Cloudy with Mist and Fog Força ennuvolat , Boira
Pressió 1009 (hPa) - 29.79 (inHg)
Visibilitat 2 (milla) - 4 (km)
Aeroport
Codi aeroport ETNH

Ubicació: Flugplatz Hohn Airport
Distància: 40 (km)

Metar:
METAR ETNH 040555Z 05008KT 3600 BR BKN004 BKN060 05/05 Q1009 YLO

Temps: 04-03-2024 06:55 CET